sensor_id;sensor_type;location;lat;lon;timestamp;P1;durP1;ratioP1;P2;durP2;ratioP2
46463;SDS011;32161;48.148;-1.554;2022-11-30T00:01:16;39.65;;;17.27;;
46463;SDS011;32161;48.148;-1.554;2022-11-30T00:03:46;26.88;;;17.48;;
46463;SDS011;32161;48.148;-1.554;2022-11-30T00:06:19;26.40;;;16.85;;
46463;SDS011;32161;48.148;-1.554;2022-11-30T00:08:48;24.35;;;17.13;;
46463;SDS011;32161;48.148;-1.554;2022-11-30T00:11:17;47.20;;;17.20;;
46463;SDS011;32161;48.148;-1.554;2022-11-30T00:13:47;52.15;;;17.73;;
46463;SDS011;32161;48.148;-1.554;2022-11-30T00:16:15;26.33;;;16.55;;
46463;SDS011;32161;48.148;-1.554;2022-11-30T00:18:42;31.00;;;16.30;;
46463;SDS011;32161;48.148;-1.554;2022-11-30T00:21:11;31.13;;;17.02;;
46463;SDS011;32161;48.148;-1.554;2022-11-30T00:23:42;33.35;;;16.67;;
46463;SDS011;32161;48.148;-1.554;2022-11-30T00:26:13;26.08;;;17.17;;
46463;SDS011;32161;48.148;-1.554;2022-11-30T00:28:43;27.20;;;16.85;;
46463;SDS011;32161;48.148;-1.554;2022-11-30T00:31:12;23.95;;;17.23;;
46463;SDS011;32161;48.148;-1.554;2022-11-30T00:33:41;30.08;;;18.80;;
46463;SDS011;32161;48.148;-1.554;2022-11-30T00:36:10;29.23;;;18.45;;
46463;SDS011;32161;48.148;-1.554;2022-11-30T00:38:39;28.95;;;18.27;;
46463;SDS011;32161;48.148;-1.554;2022-11-30T00:41:08;28.60;;;18.08;;
46463;SDS011;32161;48.148;-1.554;2022-11-30T00:43:36;29.95;;;18.55;;
46463;SDS011;32161;48.148;-1.554;2022-11-30T00:46:04;30.23;;;17.27;;
46463;SDS011;32161;48.148;-1.554;2022-11-30T00:48:33;33.63;;;19.00;;
46463;SDS011;32161;48.148;-1.554;2022-11-30T00:51:01;31.92;;;18.35;;
46463;SDS011;32161;48.148;-1.554;2022-11-30T00:53:28;31.63;;;18.52;;
46463;SDS011;32161;48.148;-1.554;2022-11-30T00:55:58;28.33;;;18.02;;
46463;SDS011;32161;48.148;-1.554;2022-11-30T00:58:25;31.88;;;18.95;;
46463;SDS011;32161;48.148;-1.554;2022-11-30T01:00:53;32.75;;;18.67;;
46463;SDS011;32161;48.148;-1.554;2022-11-30T01:03:20;32.58;;;18.38;;
46463;SDS011;32161;48.148;-1.554;2022-11-30T01:05:48;38.80;;;20.73;;
46463;SDS011;32161;48.148;-1.554;2022-11-30T01:08:16;35.10;;;20.38;;
46463;SDS011;32161;48.148;-1.554;2022-11-30T01:10:43;33.95;;;20.23;;
46463;SDS011;32161;48.148;-1.554;2022-11-30T01:13:14;37.38;;;20.90;;
46463;SDS011;32161;48.148;-1.554;2022-11-30T01:15:42;34.80;;;18.52;;
46463;SDS011;32161;48.148;-1.554;2022-11-30T01:18:10;33.22;;;18.88;;
46463;SDS011;32161;48.148;-1.554;2022-11-30T01:20:38;38.50;;;20.23;;
46463;SDS011;32161;48.148;-1.554;2022-11-30T01:23:07;30.13;;;15.50;;
46463;SDS011;32161;48.148;-1.554;2022-11-30T01:25:35;26.90;;;15.07;;
46463;SDS011;32161;48.148;-1.554;2022-11-30T01:28:03;27.33;;;15.45;;
46463;SDS011;32161;48.148;-1.554;2022-11-30T01:30:32;28.55;;;14.90;;
46463;SDS011;32161;48.148;-1.554;2022-11-30T01:33:03;23.10;;;13.05;;
46463;SDS011;32161;48.148;-1.554;2022-11-30T01:35:31;22.77;;;12.93;;
46463;SDS011;32161;48.148;-1.554;2022-11-30T01:37:58;20.65;;;12.38;;
46463;SDS011;32161;48.148;-1.554;2022-11-30T01:40:26;19.30;;;11.82;;
46463;SDS011;32161;48.148;-1.554;2022-11-30T01:42:53;19.00;;;11.73;;
46463;SDS011;32161;48.148;-1.554;2022-11-30T01:45:21;18.65;;;11.13;;
46463;SDS011;32161;48.148;-1.554;2022-11-30T01:47:51;20.00;;;10.95;;
46463;SDS011;32161;48.148;-1.554;2022-11-30T01:50:23;20.42;;;11.25;;
46463;SDS011;32161;48.148;-1.554;2022-11-30T01:52:56;20.17;;;11.13;;
46463;SDS011;32161;48.148;-1.554;2022-11-30T01:55:25;15.50;;;9.18;;
46463;SDS011;32161;48.148;-1.554;2022-11-30T01:57:57;15.32;;;9.70;;
46463;SDS011;32161;48.148;-1.554;2022-11-30T02:00:29;15.43;;;10.50;;
46463;SDS011;32161;48.148;-1.554;2022-11-30T02:02:59;16.80;;;9.93;;
46463;SDS011;32161;48.148;-1.554;2022-11-30T02:05:33;15.07;;;9.88;;
46463;SDS011;32161;48.148;-1.554;2022-11-30T02:08:04;13.65;;;9.30;;
46463;SDS011;32161;48.148;-1.554;2022-11-30T02:10:33;19.50;;;10.27;;
46463;SDS011;32161;48.148;-1.554;2022-11-30T02:13:07;15.02;;;10.27;;
46463;SDS011;32161;48.148;-1.554;2022-11-30T02:15:54;17.08;;;9.43;;
46463;SDS011;32161;48.148;-1.554;2022-11-30T02:18:31;18.17;;;10.38;;
46463;SDS011;32161;48.148;-1.554;2022-11-30T02:21:12;23.58;;;11.50;;
46463;SDS011;32161;48.148;-1.554;2022-11-30T02:23:59;18.52;;;10.75;;
46463;SDS011;32161;48.148;-1.554;2022-11-30T02:27:08;16.83;;;10.32;;
46463;SDS011;32161;48.148;-1.554;2022-11-30T02:29:54;17.38;;;10.73;;
46463;SDS011;32161;48.148;-1.554;2022-11-30T02:32:27;19.05;;;11.18;;
46463;SDS011;32161;48.148;-1.554;2022-11-30T02:37:27;16.60;;;10.60;;
46463;SDS011;32161;48.148;-1.554;2022-11-30T02:39:55;16.42;;;10.80;;
46463;SDS011;32161;48.148;-1.554;2022-11-30T02:42:24;14.57;;;9.98;;
46463;SDS011;32161;48.148;-1.554;2022-11-30T02:44:51;21.17;;;10.75;;
46463;SDS011;32161;48.148;-1.554;2022-11-30T02:47:22;17.75;;;10.77;;
46463;SDS011;32161;48.148;-1.554;2022-11-30T02:49:57;18.15;;;10.27;;
46463;SDS011;32161;48.148;-1.554;2022-11-30T02:52:27;16.92;;;11.60;;
46463;SDS011;32161;48.148;-1.554;2022-11-30T02:54:58;17.83;;;10.60;;
46463;SDS011;32161;48.148;-1.554;2022-11-30T02:57:26;17.83;;;10.43;;
46463;SDS011;32161;48.148;-1.554;2022-11-30T02:59:54;18.63;;;11.65;;
46463;SDS011;32161;48.148;-1.554;2022-11-30T03:02:23;17.60;;;10.55;;
46463;SDS011;32161;48.148;-1.554;2022-11-30T03:04:51;15.25;;;9.73;;
46463;SDS011;32161;48.148;-1.554;2022-11-30T03:07:19;13.32;;;9.50;;
46463;SDS011;32161;48.148;-1.554;2022-11-30T03:09:46;14.75;;;9.65;;
46463;SDS011;32161;48.148;-1.554;2022-11-30T03:12:14;15.10;;;9.00;;
46463;SDS011;32161;48.148;-1.554;2022-11-30T03:14:42;15.45;;;10.52;;
46463;SDS011;32161;48.148;-1.554;2022-11-30T03:17:09;11.90;;;8.52;;
46463;SDS011;32161;48.148;-1.554;2022-11-30T03:19:38;17.63;;;9.85;;
46463;SDS011;32161;48.148;-1.554;2022-11-30T03:22:06;18.30;;;10.27;;
46463;SDS011;32161;48.148;-1.554;2022-11-30T03:24:33;18.70;;;10.18;;
46463;SDS011;32161;48.148;-1.554;2022-11-30T03:27:01;14.20;;;8.95;;
46463;SDS011;32161;48.148;-1.554;2022-11-30T03:29:29;14.63;;;9.52;;
46463;SDS011;32161;48.148;-1.554;2022-11-30T03:31:56;13.07;;;9.15;;
46463;SDS011;32161;48.148;-1.554;2022-11-30T03:34:24;13.07;;;9.15;;
46463;SDS011;32161;48.148;-1.554;2022-11-30T03:36:54;18.65;;;10.00;;
46463;SDS011;32161;48.148;-1.554;2022-11-30T03:39:22;15.05;;;10.30;;
46463;SDS011;32161;48.148;-1.554;2022-11-30T03:41:49;21.55;;;9.98;;
46463;SDS011;32161;48.148;-1.554;2022-11-30T03:44:17;16.60;;;11.23;;
46463;SDS011;32161;48.148;-1.554;2022-11-30T03:46:45;17.85;;;10.18;;
46463;SDS011;32161;48.148;-1.554;2022-11-30T03:49:13;15.77;;;10.88;;
46463;SDS011;32161;48.148;-1.554;2022-11-30T03:51:40;19.63;;;12.52;;
46463;SDS011;32161;48.148;-1.554;2022-11-30T03:54:09;19.73;;;12.18;;
46463;SDS011;32161;48.148;-1.554;2022-11-30T03:56:37;17.60;;;9.98;;
46463;SDS011;32161;48.148;-1.554;2022-11-30T03:59:04;15.15;;;10.15;;
46463;SDS011;32161;48.148;-1.554;2022-11-30T04:01:32;16.48;;;10.38;;
46463;SDS011;32161;48.148;-1.554;2022-11-30T04:04:01;15.43;;;9.90;;
46463;SDS011;32161;48.148;-1.554;2022-11-30T04:06:28;14.82;;;9.63;;
46463;SDS011;32161;48.148;-1.554;2022-11-30T04:08:56;18.40;;;10.40;;
46463;SDS011;32161;48.148;-1.554;2022-11-30T04:11:25;16.08;;;10.20;;
46463;SDS011;32161;48.148;-1.554;2022-11-30T04:13:52;20.88;;;10.77;;
46463;SDS011;32161;48.148;-1.554;2022-11-30T04:16:20;16.92;;;11.15;;
46463;SDS011;32161;48.148;-1.554;2022-11-30T04:18:48;16.15;;;10.60;;
46463;SDS011;32161;48.148;-1.554;2022-11-30T04:21:15;17.60;;;9.38;;
46463;SDS011;32161;48.148;-1.554;2022-11-30T04:23:43;17.15;;;9.40;;
46463;SDS011;32161;48.148;-1.554;2022-11-30T04:26:11;15.32;;;9.82;;
46463;SDS011;32161;48.148;-1.554;2022-11-30T04:28:43;16.05;;;9.60;;
46463;SDS011;32161;48.148;-1.554;2022-11-30T04:31:11;14.40;;;10.18;;
46463;SDS011;32161;48.148;-1.554;2022-11-30T04:33:39;13.48;;;9.60;;
46463;SDS011;32161;48.148;-1.554;2022-11-30T04:36:12;17.58;;;10.30;;
46463;SDS011;32161;48.148;-1.554;2022-11-30T04:38:44;16.52;;;9.18;;
46463;SDS011;32161;48.148;-1.554;2022-11-30T04:41:12;16.45;;;10.57;;
46463;SDS011;32161;48.148;-1.554;2022-11-30T04:43:40;17.08;;;9.38;;
46463;SDS011;32161;48.148;-1.554;2022-11-30T04:46:09;20.98;;;10.18;;
46463;SDS011;32161;48.148;-1.554;2022-11-30T04:48:36;17.45;;;9.45;;
46463;SDS011;32161;48.148;-1.554;2022-11-30T04:51:05;18.15;;;10.48;;
46463;SDS011;32161;48.148;-1.554;2022-11-30T04:53:35;14.38;;;9.45;;
46463;SDS011;32161;48.148;-1.554;2022-11-30T04:56:04;14.77;;;9.77;;
46463;SDS011;32161;48.148;-1.554;2022-11-30T04:58:33;18.75;;;9.95;;
46463;SDS011;32161;48.148;-1.554;2022-11-30T05:01:01;20.27;;;10.82;;
46463;SDS011;32161;48.148;-1.554;2022-11-30T05:03:30;16.02;;;9.13;;
46463;SDS011;32161;48.148;-1.554;2022-11-30T05:05:57;15.82;;;9.82;;
46463;SDS011;32161;48.148;-1.554;2022-11-30T05:08:25;18.02;;;11.02;;
46463;SDS011;32161;48.148;-1.554;2022-11-30T05:10:53;14.55;;;9.95;;
46463;SDS011;32161;48.148;-1.554;2022-11-30T05:13:21;31.50;;;10.63;;
46463;SDS011;32161;48.148;-1.554;2022-11-30T05:15:51;23.77;;;10.75;;
46463;SDS011;32161;48.148;-1.554;2022-11-30T05:18:18;56.17;;;11.25;;
46463;SDS011;32161;48.148;-1.554;2022-11-30T05:20:48;15.75;;;9.95;;
46463;SDS011;32161;48.148;-1.554;2022-11-30T05:23:18;25.80;;;10.52;;
46463;SDS011;32161;48.148;-1.554;2022-11-30T05:25:46;17.80;;;10.15;;
46463;SDS011;32161;48.148;-1.554;2022-11-30T05:28:13;41.72;;;10.07;;
46463;SDS011;32161;48.148;-1.554;2022-11-30T05:30:41;25.65;;;11.40;;
46463;SDS011;32161;48.148;-1.554;2022-11-30T05:33:09;15.07;;;9.80;;
46463;SDS011;32161;48.148;-1.554;2022-11-30T05:35:37;29.35;;;9.35;;
46463;SDS011;32161;48.148;-1.554;2022-11-30T05:38:07;27.13;;;9.20;;
46463;SDS011;32161;48.148;-1.554;2022-11-30T05:40:35;55.40;;;9.32;;
46463;SDS011;32161;48.148;-1.554;2022-11-30T05:43:03;46.65;;;9.20;;
46463;SDS011;32161;48.148;-1.554;2022-11-30T05:45:31;59.60;;;8.38;;
46463;SDS011;32161;48.148;-1.554;2022-11-30T05:47:58;23.13;;;7.85;;
46463;SDS011;32161;48.148;-1.554;2022-11-30T05:50:26;41.83;;;8.65;;
46463;SDS011;32161;48.148;-1.554;2022-11-30T05:52:54;20.17;;;6.97;;
46463;SDS011;32161;48.148;-1.554;2022-11-30T05:55:23;31.65;;;7.63;;
46463;SDS011;32161;48.148;-1.554;2022-11-30T05:57:52;27.15;;;7.78;;
46463;SDS011;32161;48.148;-1.554;2022-11-30T06:00:20;28.17;;;7.20;;
46463;SDS011;32161;48.148;-1.554;2022-11-30T06:02:53;18.50;;;8.23;;
46463;SDS011;32161;48.148;-1.554;2022-11-30T06:05:22;47.42;;;7.40;;
46463;SDS011;32161;48.148;-1.554;2022-11-30T06:07:50;15.93;;;7.22;;
46463;SDS011;32161;48.148;-1.554;2022-11-30T06:10:17;15.35;;;7.40;;
46463;SDS011;32161;48.148;-1.554;2022-11-30T06:12:46;19.05;;;7.75;;
46463;SDS011;32161;48.148;-1.554;2022-11-30T06:15:14;54.05;;;7.07;;
46463;SDS011;32161;48.148;-1.554;2022-11-30T06:17:42;16.40;;;7.00;;
46463;SDS011;32161;48.148;-1.554;2022-11-30T06:20:10;10.25;;;7.05;;
46463;SDS011;32161;48.148;-1.554;2022-11-30T06:22:38;12.27;;;6.43;;
46463;SDS011;32161;48.148;-1.554;2022-11-30T06:25:06;7.90;;;6.72;;
46463;SDS011;32161;48.148;-1.554;2022-11-30T06:27:34;7.82;;;7.13;;
46463;SDS011;32161;48.148;-1.554;2022-11-30T06:30:03;8.25;;;7.45;;
46463;SDS011;32161;48.148;-1.554;2022-11-30T06:32:34;9.40;;;7.65;;
46463;SDS011;32161;48.148;-1.554;2022-11-30T06:35:01;8.57;;;7.38;;
46463;SDS011;32161;48.148;-1.554;2022-11-30T06:37:32;7.35;;;6.30;;
46463;SDS011;32161;48.148;-1.554;2022-11-30T06:40:00;8.93;;;6.93;;
46463;SDS011;32161;48.148;-1.554;2022-11-30T06:42:28;10.52;;;6.65;;
46463;SDS011;32161;48.148;-1.554;2022-11-30T06:44:56;7.68;;;6.03;;
46463;SDS011;32161;48.148;-1.554;2022-11-30T06:47:25;7.75;;;6.60;;
46463;SDS011;32161;48.148;-1.554;2022-11-30T06:49:53;7.32;;;6.38;;
46463;SDS011;32161;48.148;-1.554;2022-11-30T06:52:21;9.77;;;6.32;;
46463;SDS011;32161;48.148;-1.554;2022-11-30T06:54:48;7.15;;;6.15;;
46463;SDS011;32161;48.148;-1.554;2022-11-30T06:57:16;7.50;;;6.28;;
46463;SDS011;32161;48.148;-1.554;2022-11-30T06:59:44;10.00;;;5.93;;
46463;SDS011;32161;48.148;-1.554;2022-11-30T07:02:12;9.65;;;6.50;;
46463;SDS011;32161;48.148;-1.554;2022-11-30T07:04:42;9.02;;;6.28;;
46463;SDS011;32161;48.148;-1.554;2022-11-30T07:07:10;7.70;;;6.60;;
46463;SDS011;32161;48.148;-1.554;2022-11-30T07:09:37;8.68;;;6.38;;
46463;SDS011;32161;48.148;-1.554;2022-11-30T07:12:05;8.77;;;6.28;;
46463;SDS011;32161;48.148;-1.554;2022-11-30T07:14:34;7.50;;;5.90;;
46463;SDS011;32161;48.148;-1.554;2022-11-30T07:17:02;7.95;;;6.60;;
46463;SDS011;32161;48.148;-1.554;2022-11-30T07:19:29;7.22;;;5.55;;
46463;SDS011;32161;48.148;-1.554;2022-11-30T07:21:59;5.85;;;5.35;;
46463;SDS011;32161;48.148;-1.554;2022-11-30T07:24:27;10.00;;;6.50;;
46463;SDS011;32161;48.148;-1.554;2022-11-30T07:27:12;7.60;;;6.57;;
46463;SDS011;32161;48.148;-1.554;2022-11-30T07:29:40;6.88;;;6.18;;
46463;SDS011;32161;48.148;-1.554;2022-11-30T07:32:07;7.55;;;6.13;;
46463;SDS011;32161;48.148;-1.554;2022-11-30T07:34:35;6.93;;;6.07;;
46463;SDS011;32161;48.148;-1.554;2022-11-30T07:37:04;6.97;;;5.63;;
46463;SDS011;32161;48.148;-1.554;2022-11-30T07:39:32;6.13;;;5.53;;
46463;SDS011;32161;48.148;-1.554;2022-11-30T07:41:59;7.47;;;6.53;;
46463;SDS011;32161;48.148;-1.554;2022-11-30T07:44:27;8.85;;;5.68;;
46463;SDS011;32161;48.148;-1.554;2022-11-30T07:46:54;6.72;;;5.45;;
46463;SDS011;32161;48.148;-1.554;2022-11-30T07:49:22;5.75;;;5.22;;
46463;SDS011;32161;48.148;-1.554;2022-11-30T07:51:50;7.75;;;6.07;;
46463;SDS011;32161;48.148;-1.554;2022-11-30T07:54:19;6.22;;;5.63;;
46463;SDS011;32161;48.148;-1.554;2022-11-30T07:56:47;7.18;;;5.85;;
46463;SDS011;32161;48.148;-1.554;2022-11-30T07:59:14;8.43;;;6.28;;
46463;SDS011;32161;48.148;-1.554;2022-11-30T08:01:42;6.40;;;5.68;;
46463;SDS011;32161;48.148;-1.554;2022-11-30T08:04:09;6.53;;;5.82;;
46463;SDS011;32161;48.148;-1.554;2022-11-30T08:06:38;7.38;;;5.88;;
46463;SDS011;32161;48.148;-1.554;2022-11-30T08:09:06;6.88;;;6.20;;
46463;SDS011;32161;48.148;-1.554;2022-11-30T08:11:38;6.88;;;5.45;;
46463;SDS011;32161;48.148;-1.554;2022-11-30T08:14:06;7.07;;;6.15;;
46463;SDS011;32161;48.148;-1.554;2022-11-30T08:16:37;6.28;;;5.72;;
46463;SDS011;32161;48.148;-1.554;2022-11-30T08:19:05;5.82;;;5.18;;
46463;SDS011;32161;48.148;-1.554;2022-11-30T08:21:32;6.10;;;5.50;;
46463;SDS011;32161;48.148;-1.554;2022-11-30T08:24:02;7.07;;;5.13;;
46463;SDS011;32161;48.148;-1.554;2022-11-30T08:26:31;8.35;;;6.22;;
46463;SDS011;32161;48.148;-1.554;2022-11-30T08:29:01;8.82;;;6.18;;
46463;SDS011;32161;48.148;-1.554;2022-11-30T08:31:30;7.20;;;6.50;;
46463;SDS011;32161;48.148;-1.554;2022-11-30T08:34:00;7.63;;;6.13;;
46463;SDS011;32161;48.148;-1.554;2022-11-30T08:36:31;11.48;;;6.95;;
46463;SDS011;32161;48.148;-1.554;2022-11-30T08:38:59;6.10;;;5.50;;
46463;SDS011;32161;48.148;-1.554;2022-11-30T08:41:30;9.65;;;6.05;;
46463;SDS011;32161;48.148;-1.554;2022-11-30T08:43:59;10.45;;;6.38;;
46463;SDS011;32161;48.148;-1.554;2022-11-30T08:46:28;9.30;;;6.30;;
46463;SDS011;32161;48.148;-1.554;2022-11-30T08:48:56;9.85;;;6.53;;
46463;SDS011;32161;48.148;-1.554;2022-11-30T08:51:23;7.13;;;6.40;;
46463;SDS011;32161;48.148;-1.554;2022-11-30T08:53:51;8.80;;;6.93;;
46463;SDS011;32161;48.148;-1.554;2022-11-30T08:56:19;9.00;;;5.93;;
46463;SDS011;32161;48.148;-1.554;2022-11-30T08:58:48;11.60;;;6.53;;
46463;SDS011;32161;48.148;-1.554;2022-11-30T09:01:18;9.55;;;6.57;;
46463;SDS011;32161;48.148;-1.554;2022-11-30T09:06:17;11.90;;;7.18;;
46463;SDS011;32161;48.148;-1.554;2022-11-30T09:08:48;10.23;;;6.20;;
46463;SDS011;32161;48.148;-1.554;2022-11-30T09:11:18;10.88;;;6.97;;
46463;SDS011;32161;48.148;-1.554;2022-11-30T09:13:48;9.95;;;6.22;;
46463;SDS011;32161;48.148;-1.554;2022-11-30T09:16:16;7.43;;;5.72;;
46463;SDS011;32161;48.148;-1.554;2022-11-30T09:18:46;11.20;;;6.32;;
46463;SDS011;32161;48.148;-1.554;2022-11-30T09:21:16;6.95;;;5.30;;
46463;SDS011;32161;48.148;-1.554;2022-11-30T09:23:46;9.75;;;6.38;;
46463;SDS011;32161;48.148;-1.554;2022-11-30T09:26:15;10.98;;;6.15;;
46463;SDS011;32161;48.148;-1.554;2022-11-30T09:28:45;15.48;;;7.07;;
46463;SDS011;32161;48.148;-1.554;2022-11-30T09:31:14;5.90;;;5.30;;
46463;SDS011;32161;48.148;-1.554;2022-11-30T09:33:44;8.70;;;5.50;;
46463;SDS011;32161;48.148;-1.554;2022-11-30T09:36:13;8.23;;;5.05;;
46463;SDS011;32161;48.148;-1.554;2022-11-30T09:38:43;6.75;;;5.18;;
46463;SDS011;32161;48.148;-1.554;2022-11-30T09:41:19;6.10;;;5.22;;
46463;SDS011;32161;48.148;-1.554;2022-11-30T09:44:30;9.50;;;6.28;;
46463;SDS011;32161;48.148;-1.554;2022-11-30T09:47:11;7.82;;;6.50;;
46463;SDS011;32161;48.148;-1.554;2022-11-30T09:50:08;5.72;;;5.18;;
46463;SDS011;32161;48.148;-1.554;2022-11-30T09:52:41;10.35;;;6.78;;
46463;SDS011;32161;48.148;-1.554;2022-11-30T09:55:13;6.20;;;5.30;;
46463;SDS011;32161;48.148;-1.554;2022-11-30T09:57:50;7.82;;;5.30;;
46463;SDS011;32161;48.148;-1.554;2022-11-30T10:00:21;8.02;;;5.18;;
46463;SDS011;32161;48.148;-1.554;2022-11-30T10:02:50;8.38;;;5.32;;
46463;SDS011;32161;48.148;-1.554;2022-11-30T10:05:21;6.30;;;5.03;;
46463;SDS011;32161;48.148;-1.554;2022-11-30T10:08:03;7.43;;;5.13;;
46463;SDS011;32161;48.148;-1.554;2022-11-30T10:10:49;5.30;;;4.80;;
46463;SDS011;32161;48.148;-1.554;2022-11-30T10:13:37;7.70;;;5.20;;
46463;SDS011;32161;48.148;-1.554;2022-11-30T10:16:22;5.95;;;4.63;;
46463;SDS011;32161;48.148;-1.554;2022-11-30T10:19:02;5.40;;;4.85;;
46463;SDS011;32161;48.148;-1.554;2022-11-30T10:21:49;5.05;;;4.25;;
46463;SDS011;32161;48.148;-1.554;2022-11-30T10:24:30;6.95;;;4.03;;
46463;SDS011;32161;48.148;-1.554;2022-11-30T10:27:13;4.82;;;3.90;;
46463;SDS011;32161;48.148;-1.554;2022-11-30T10:29:54;6.72;;;4.45;;
46463;SDS011;32161;48.148;-1.554;2022-11-30T10:35:00;9.88;;;4.38;;
46463;SDS011;32161;48.148;-1.554;2022-11-30T10:37:43;5.50;;;4.03;;
46463;SDS011;32161;48.148;-1.554;2022-11-30T10:40:13;4.47;;;3.92;;
46463;SDS011;32161;48.148;-1.554;2022-11-30T10:42:51;6.25;;;4.65;;
46463;SDS011;32161;48.148;-1.554;2022-11-30T10:47:58;4.05;;;3.65;;
46463;SDS011;32161;48.148;-1.554;2022-11-30T10:50:34;6.30;;;4.25;;
46463;SDS011;32161;48.148;-1.554;2022-11-30T10:53:03;4.63;;;4.22;;
46463;SDS011;32161;48.148;-1.554;2022-11-30T10:55:33;6.57;;;3.92;;
46463;SDS011;32161;48.148;-1.554;2022-11-30T10:58:06;6.28;;;4.38;;
46463;SDS011;32161;48.148;-1.554;2022-11-30T11:00:46;6.45;;;4.20;;
46463;SDS011;32161;48.148;-1.554;2022-11-30T11:03:24;6.85;;;4.80;;
46463;SDS011;32161;48.148;-1.554;2022-11-30T11:06:01;5.72;;;4.57;;
46463;SDS011;32161;48.148;-1.554;2022-11-30T11:08:48;5.57;;;4.15;;
46463;SDS011;32161;48.148;-1.554;2022-11-30T11:11:26;5.65;;;4.35;;
46463;SDS011;32161;48.148;-1.554;2022-11-30T11:14:07;5.90;;;4.47;;
46463;SDS011;32161;48.148;-1.554;2022-11-30T11:16:50;5.32;;;4.45;;
46463;SDS011;32161;48.148;-1.554;2022-11-30T11:19:22;6.07;;;4.93;;
46463;SDS011;32161;48.148;-1.554;2022-11-30T11:22:05;4.88;;;4.15;;
46463;SDS011;32161;48.148;-1.554;2022-11-30T11:24:43;8.18;;;5.10;;
46463;SDS011;32161;48.148;-1.554;2022-11-30T11:27:19;11.55;;;5.13;;
46463;SDS011;32161;48.148;-1.554;2022-11-30T11:32:58;6.68;;;4.53;;
46463;SDS011;32161;48.148;-1.554;2022-11-30T11:35:30;5.53;;;4.97;;
46463;SDS011;32161;48.148;-1.554;2022-11-30T11:38:02;6.03;;;4.90;;
46463;SDS011;32161;48.148;-1.554;2022-11-30T11:40:50;6.85;;;5.22;;
46463;SDS011;32161;48.148;-1.554;2022-11-30T11:43:22;9.30;;;6.10;;
46463;SDS011;32161;48.148;-1.554;2022-11-30T11:45:52;7.63;;;5.50;;
46463;SDS011;32161;48.148;-1.554;2022-11-30T11:48:27;8.00;;;5.80;;
46463;SDS011;32161;48.148;-1.554;2022-11-30T11:51:04;9.07;;;6.07;;
46463;SDS011;32161;48.148;-1.554;2022-11-30T11:53:38;7.32;;;5.32;;
46463;SDS011;32161;48.148;-1.554;2022-11-30T11:56:15;8.73;;;5.60;;
46463;SDS011;32161;48.148;-1.554;2022-11-30T11:58:51;9.60;;;7.25;;
46463;SDS011;32161;48.148;-1.554;2022-11-30T12:01:29;11.68;;;6.07;;
46463;SDS011;32161;48.148;-1.554;2022-11-30T12:04:19;7.50;;;5.50;;
46463;SDS011;32161;48.148;-1.554;2022-11-30T12:07:22;12.95;;;7.00;;
46463;SDS011;32161;48.148;-1.554;2022-11-30T12:10:12;10.02;;;6.43;;
46463;SDS011;32161;48.148;-1.554;2022-11-30T12:12:53;8.70;;;5.55;;
46463;SDS011;32161;48.148;-1.554;2022-11-30T12:15:22;12.10;;;6.15;;
46463;SDS011;32161;48.148;-1.554;2022-11-30T12:17:59;6.72;;;5.65;;
46463;SDS011;32161;48.148;-1.554;2022-11-30T12:20:35;6.38;;;5.20;;
46463;SDS011;32161;48.148;-1.554;2022-11-30T12:23:20;7.85;;;5.18;;
46463;SDS011;32161;48.148;-1.554;2022-11-30T12:26:17;9.82;;;5.30;;
46463;SDS011;32161;48.148;-1.554;2022-11-30T12:29:02;5.10;;;4.38;;
46463;SDS011;32161;48.148;-1.554;2022-11-30T12:34:28;7.28;;;4.55;;
46463;SDS011;32161;48.148;-1.554;2022-11-30T12:37:13;8.68;;;5.95;;
46463;SDS011;32161;48.148;-1.554;2022-11-30T12:39:51;7.80;;;4.50;;
46463;SDS011;32161;48.148;-1.554;2022-11-30T12:42:30;7.05;;;5.32;;
46463;SDS011;32161;48.148;-1.554;2022-11-30T12:45:10;6.32;;;4.93;;
46463;SDS011;32161;48.148;-1.554;2022-11-30T12:47:47;11.07;;;5.95;;
46463;SDS011;32161;48.148;-1.554;2022-11-30T12:50:32;8.10;;;4.80;;
46463;SDS011;32161;48.148;-1.554;2022-11-30T12:53:14;7.22;;;5.57;;
46463;SDS011;32161;48.148;-1.554;2022-11-30T12:55:53;6.82;;;4.85;;
46463;SDS011;32161;48.148;-1.554;2022-11-30T12:58:34;6.88;;;5.70;;
46463;SDS011;32161;48.148;-1.554;2022-11-30T13:01:11;11.60;;;6.07;;
46463;SDS011;32161;48.148;-1.554;2022-11-30T13:03:54;9.55;;;5.45;;
46463;SDS011;32161;48.148;-1.554;2022-11-30T13:06:29;6.45;;;5.50;;
46463;SDS011;32161;48.148;-1.554;2022-11-30T13:09:04;8.18;;;6.40;;
46463;SDS011;32161;48.148;-1.554;2022-11-30T13:11:42;7.65;;;5.97;;
46463;SDS011;32161;48.148;-1.554;2022-11-30T13:14:15;7.57;;;6.13;;
46463;SDS011;32161;48.148;-1.554;2022-11-30T13:16:51;6.03;;;5.40;;
46463;SDS011;32161;48.148;-1.554;2022-11-30T13:19:38;8.02;;;6.07;;
46463;SDS011;32161;48.148;-1.554;2022-11-30T13:22:16;6.55;;;5.95;;
46463;SDS011;32161;48.148;-1.554;2022-11-30T13:24:53;11.10;;;6.35;;
46463;SDS011;32161;48.148;-1.554;2022-11-30T13:27:29;8.82;;;5.63;;
46463;SDS011;32161;48.148;-1.554;2022-11-30T13:30:12;6.72;;;5.93;;
46463;SDS011;32161;48.148;-1.554;2022-11-30T13:32:51;7.45;;;5.60;;
46463;SDS011;32161;48.148;-1.554;2022-11-30T13:38:19;9.27;;;6.13;;
46463;SDS011;32161;48.148;-1.554;2022-11-30T13:40:54;6.30;;;5.32;;
46463;SDS011;32161;48.148;-1.554;2022-11-30T13:43:24;6.47;;;5.68;;
46463;SDS011;32161;48.148;-1.554;2022-11-30T13:46:04;10.70;;;7.88;;
46463;SDS011;32161;48.148;-1.554;2022-11-30T13:48:42;8.00;;;6.82;;
46463;SDS011;32161;48.148;-1.554;2022-11-30T13:51:11;9.15;;;6.43;;
46463;SDS011;32161;48.148;-1.554;2022-11-30T13:54:12;9.25;;;6.95;;
46463;SDS011;32161;48.148;-1.554;2022-11-30T13:58:05;11.02;;;6.10;;
46463;SDS011;32161;48.148;-1.554;2022-11-30T14:03:40;6.50;;;5.28;;
46463;SDS011;32161;48.148;-1.554;2022-11-30T14:09:13;5.53;;;5.10;;
46463;SDS011;32161;48.148;-1.554;2022-11-30T14:11:42;7.00;;;4.60;;
46463;SDS011;32161;48.148;-1.554;2022-11-30T14:17:17;11.02;;;4.50;;
46463;SDS011;32161;48.148;-1.554;2022-11-30T14:19:49;4.65;;;4.07;;
46463;SDS011;32161;48.148;-1.554;2022-11-30T14:22:20;5.63;;;4.72;;
46463;SDS011;32161;48.148;-1.554;2022-11-30T14:24:48;11.32;;;5.35;;
46463;SDS011;32161;48.148;-1.554;2022-11-30T14:27:17;8.07;;;5.43;;
46463;SDS011;32161;48.148;-1.554;2022-11-30T14:29:48;9.23;;;5.47;;
46463;SDS011;32161;48.148;-1.554;2022-11-30T14:32:32;11.95;;;6.25;;
46463;SDS011;32161;48.148;-1.554;2022-11-30T14:35:06;9.93;;;6.20;;
46463;SDS011;32161;48.148;-1.554;2022-11-30T14:37:42;9.73;;;6.85;;
46463;SDS011;32161;48.148;-1.554;2022-11-30T14:40:16;10.55;;;6.30;;
46463;SDS011;32161;48.148;-1.554;2022-11-30T14:42:46;8.13;;;6.18;;
46463;SDS011;32161;48.148;-1.554;2022-11-30T14:45:17;11.13;;;6.63;;
46463;SDS011;32161;48.148;-1.554;2022-11-30T14:50:29;4.93;;;4.38;;
46463;SDS011;32161;48.148;-1.554;2022-11-30T14:53:00;5.65;;;4.90;;
46463;SDS011;32161;48.148;-1.554;2022-11-30T14:55:44;6.85;;;5.43;;
46463;SDS011;32161;48.148;-1.554;2022-11-30T14:58:19;7.85;;;4.60;;
46463;SDS011;32161;48.148;-1.554;2022-11-30T15:00:56;7.75;;;5.18;;
46463;SDS011;32161;48.148;-1.554;2022-11-30T15:03:27;6.35;;;4.75;;
46463;SDS011;32161;48.148;-1.554;2022-11-30T15:05:58;5.22;;;4.72;;
46463;SDS011;32161;48.148;-1.554;2022-11-30T15:08:31;6.97;;;4.78;;
46463;SDS011;32161;48.148;-1.554;2022-11-30T15:11:02;6.88;;;5.10;;
46463;SDS011;32161;48.148;-1.554;2022-11-30T15:13:33;6.15;;;5.55;;
46463;SDS011;32161;48.148;-1.554;2022-11-30T15:16:07;7.15;;;5.65;;
46463;SDS011;32161;48.148;-1.554;2022-11-30T15:18:43;7.38;;;5.85;;
46463;SDS011;32161;48.148;-1.554;2022-11-30T15:21:11;7.30;;;6.07;;
46463;SDS011;32161;48.148;-1.554;2022-11-30T15:23:42;10.07;;;7.07;;